createdAt,value
2019-01-17T00:02:35.687Z,7.45
2019-01-17T00:05:41.515Z,7.43
2019-01-17T00:08:54.672Z,7.40
2019-01-17T00:11:54.900Z,7.48
2019-01-17T00:14:51.304Z,7.43
2019-01-17T00:17:51.239Z,7.46
2019-01-17T00:20:59.285Z,7.47
2019-01-17T00:24:13.406Z,7.54
2019-01-17T00:27:22.804Z,7.59
2019-01-17T00:30:32.801Z,7.53
2019-01-17T00:33:44.820Z,7.57
2019-01-17T00:36:45.846Z,7.60
2019-01-17T00:39:42.681Z,7.65
2019-01-17T00:42:39.633Z,7.64
2019-01-17T00:45:47.111Z,7.72
2019-01-17T00:48:57.383Z,7.75
2019-01-17T00:52:04.575Z,7.75
2019-01-17T00:55:11.253Z,7.77
2019-01-17T00:58:16.174Z,7.75
2019-01-17T01:01:34.096Z,7.74
2019-01-17T01:04:50.663Z,7.76
2019-01-17T01:08:12.129Z,7.71
2019-01-17T01:11:21.210Z,7.76
2019-01-17T01:14:32.747Z,7.81
2019-01-17T01:17:29.517Z,7.81
2019-01-17T01:20:34.050Z,7.80
2019-01-17T01:23:36.328Z,7.83
2019-01-17T01:26:56.917Z,7.79
2019-01-17T01:30:04.836Z,7.86
2019-01-17T01:33:16.497Z,7.84
2019-01-17T01:36:19.714Z,7.81
2019-01-17T01:39:29.202Z,7.87
2019-01-17T01:42:33.036Z,7.89
2019-01-17T01:45:47.792Z,7.93
2019-01-17T01:48:55.849Z,7.99
2019-01-17T01:52:16.938Z,8.00
2019-01-17T01:55:07.117Z,8.05
2019-01-17T01:57:56.916Z,8.09
2019-01-17T02:00:46.698Z,8.10
2019-01-17T02:03:36.408Z,8.12
2019-01-17T02:06:26.788Z,8.11
2019-01-17T02:09:17.092Z,8.14
2019-01-17T02:12:08.023Z,8.19
2019-01-17T02:14:59.197Z,8.25
2019-01-17T02:17:49.163Z,8.25
2019-01-17T02:20:39.445Z,8.25
2019-01-17T02:23:29.491Z,8.27
2019-01-17T02:26:19.492Z,8.17
2019-01-17T02:29:09.311Z,8.18
2019-01-17T02:31:58.957Z,8.18
2019-01-17T02:34:49.237Z,8.14
2019-01-17T02:37:39.312Z,8.11
2019-01-17T02:40:28.966Z,8.16
2019-01-17T02:43:19.179Z,8.16
2019-01-17T02:46:09.063Z,8.19
2019-01-17T02:48:58.872Z,8.17
2019-01-17T02:51:49.013Z,8.20
2019-01-17T02:54:38.766Z,8.24
2019-01-17T02:57:28.482Z,8.31
2019-01-17T03:00:19.395Z,8.35
2019-01-17T03:03:08.977Z,8.40
2019-01-17T03:05:58.719Z,8.38
2019-01-17T03:08:48.650Z,8.40
2019-01-17T03:11:38.929Z,8.45
2019-01-17T03:14:30.031Z,8.47
2019-01-17T03:17:19.948Z,8.46
2019-01-17T03:20:13.119Z,8.47
2019-01-17T03:23:03.294Z,8.46
2019-01-17T03:25:53.130Z,8.53
2019-01-17T03:28:43.245Z,8.60
2019-01-17T03:31:33.024Z,8.61
2019-01-17T03:34:23.038Z,8.61
2019-01-17T03:37:12.843Z,8.66
2019-01-17T03:40:02.656Z,8.66
2019-01-17T03:42:52.652Z,8.76
2019-01-17T03:45:42.694Z,8.80
2019-01-17T03:48:32.838Z,8.82
2019-01-17T03:51:22.640Z,8.82
2019-01-17T03:54:12.726Z,8.87
2019-01-17T03:57:02.493Z,8.93
2019-01-17T03:59:52.524Z,8.96
2019-01-17T04:02:42.702Z,9.01
2019-01-17T04:05:32.959Z,9.04
2019-01-17T04:08:23.014Z,9.12
2019-01-17T04:11:12.739Z,9.10
2019-01-17T04:14:02.654Z,9.13
2019-01-17T04:16:52.550Z,9.13
2019-01-17T04:19:42.410Z,9.13
2019-01-17T04:22:32.438Z,9.11
2019-01-17T04:25:21.973Z,9.12
2019-01-17T04:28:12.080Z,9.08
2019-01-17T04:31:02.219Z,9.10
2019-01-17T04:33:52.332Z,9.14
2019-01-17T04:36:42.671Z,9.14
2019-01-17T04:39:32.404Z,9.20
2019-01-17T04:42:22.246Z,9.08
2019-01-17T04:45:13.973Z,9.11
2019-01-17T04:48:04.300Z,9.10
2019-01-17T04:50:53.959Z,9.15
2019-01-17T04:53:43.828Z,9.18
2019-01-17T04:56:33.580Z,9.16
2019-01-17T04:59:23.953Z,9.16
2019-01-17T05:02:14.010Z,9.20
2019-01-17T05:05:04.476Z,9.18
2019-01-17T05:07:54.586Z,9.13
2019-01-17T05:10:44.364Z,9.15
2019-01-17T05:13:34.433Z,9.18
2019-01-17T05:16:24.626Z,9.16
2019-01-17T05:19:14.735Z,9.15
2019-01-17T05:22:04.832Z,9.21
2019-01-17T05:24:55.335Z,9.21
2019-01-17T05:27:45.466Z,9.22
2019-01-17T05:30:35.568Z,9.27
2019-01-17T05:33:25.247Z,9.27
2019-01-17T05:36:15.487Z,9.27
2019-01-17T05:39:08.218Z,9.28
2019-01-17T05:41:58.341Z,9.32
2019-01-17T05:44:48.498Z,9.39
2019-01-17T05:47:38.017Z,9.42
2019-01-17T05:50:28.201Z,9.43
2019-01-17T05:53:17.663Z,9.39
2019-01-17T05:56:07.580Z,9.45
2019-01-17T05:58:57.262Z,9.44
2019-01-17T06:01:46.914Z,9.48
2019-01-17T06:04:37.888Z,9.50
2019-01-17T06:07:28.063Z,9.53
2019-01-17T06:10:18.150Z,9.50
2019-01-17T06:13:08.618Z,9.51
2019-01-17T06:15:59.359Z,9.46
2019-01-17T06:18:48.866Z,9.49
2019-01-17T06:21:38.863Z,9.47
2019-01-17T06:24:28.892Z,9.51
2019-01-17T06:27:19.111Z,9.51
2019-01-17T06:30:11.728Z,9.43
2019-01-17T06:33:01.253Z,9.50
2019-01-17T06:35:50.779Z,9.51
2019-01-17T06:38:40.403Z,9.51
2019-01-17T06:41:30.366Z,9.53
2019-01-17T06:44:20.691Z,9.51
2019-01-17T06:47:10.431Z,9.47
2019-01-17T06:50:00.217Z,9.47
2019-01-17T06:52:50.292Z,9.49
2019-01-17T06:55:40.454Z,9.53
2019-01-17T06:58:30.237Z,9.51
2019-01-17T07:01:20.141Z,9.49
2019-01-17T07:04:10.124Z,9.41
2019-01-17T07:07:00.295Z,9.47
2019-01-17T07:09:50.220Z,9.49
2019-01-17T07:12:40.198Z,9.48
2019-01-17T07:15:30.272Z,9.43
2019-01-17T07:18:20.633Z,9.45
2019-01-17T07:21:10.448Z,9.50
2019-01-17T07:24:00.411Z,9.52
2019-01-17T07:26:50.334Z,9.50
2019-01-17T07:29:40.297Z,9.52
2019-01-17T07:32:30.150Z,9.47
2019-01-17T07:35:20.127Z,9.40
2019-01-17T07:38:10.538Z,9.39
2019-01-17T07:40:59.946Z,9.38
2019-01-17T07:43:49.700Z,9.41
2019-01-17T07:46:39.369Z,9.46
2019-01-17T07:49:29.262Z,9.49
2019-01-17T07:52:19.109Z,9.52
2019-01-17T07:55:09.731Z,9.53
2019-01-17T07:57:59.688Z,9.51
2019-01-17T08:00:49.354Z,9.52
2019-01-17T08:03:39.500Z,9.52
2019-01-17T08:06:29.567Z,9.53
2019-01-17T08:09:19.609Z,9.55
2019-01-17T08:12:09.626Z,9.52
2019-01-17T08:14:59.617Z,9.55
2019-01-17T08:17:49.566Z,9.59
2019-01-17T08:20:39.683Z,9.62
2019-01-17T08:23:34.515Z,9.63
2019-01-17T08:26:20.752Z,9.64
2019-01-17T08:29:10.706Z,9.64
2019-01-17T08:32:00.661Z,9.61
2019-01-17T08:34:50.600Z,9.57
2019-01-17T08:37:40.448Z,9.60
2019-01-17T08:40:33.634Z,9.62
2019-01-17T08:43:23.398Z,9.69
2019-01-17T08:46:13.296Z,9.73
2019-01-17T08:49:03.622Z,9.79
2019-01-17T08:51:53.668Z,9.80
2019-01-17T08:54:43.422Z,9.84
2019-01-17T08:57:33.043Z,9.85
2019-01-17T09:00:25.768Z,9.93
2019-01-17T09:03:15.375Z,9.95
2019-01-17T09:06:05.500Z,10.00
2019-01-17T09:08:55.342Z,9.99
2019-01-17T09:11:45.266Z,10.06
2019-01-17T09:14:35.473Z,10.05
2019-01-17T09:17:25.632Z,10.07
2019-01-17T09:20:15.711Z,10.04
2019-01-17T09:23:05.882Z,10.08
2019-01-17T09:25:56.101Z,10.08
2019-01-17T09:28:46.162Z,10.10
2019-01-17T09:31:36.261Z,10.12
2019-01-17T09:34:25.868Z,10.15
2019-01-17T09:37:16.050Z,10.20
2019-01-17T09:40:07.995Z,10.24
2019-01-17T09:42:58.072Z,10.23
2019-01-17T09:45:48.068Z,10.25
2019-01-17T09:48:37.870Z,10.26
2019-01-17T09:51:28.195Z,10.33
2019-01-17T09:54:18.060Z,10.35
2019-01-17T09:57:08.312Z,10.35
2019-01-17T09:59:58.459Z,10.38
2019-01-17T10:02:48.110Z,10.34
2019-01-17T10:05:38.046Z,10.35
2019-01-17T10:08:27.832Z,10.31
2019-01-17T10:11:17.490Z,10.28
2019-01-17T10:14:07.736Z,10.31
2019-01-17T10:17:41.845Z,10.32
2019-01-17T10:21:00.722Z,10.34
2019-01-17T10:24:54.079Z,10.29
2019-01-17T10:28:33.722Z,10.25
2019-01-17T10:32:06.415Z,10.28
2019-01-17T10:35:20.587Z,10.23
2019-01-17T10:38:57.984Z,10.28
2019-01-17T10:42:12.675Z,10.31
2019-01-17T10:46:46.029Z,10.39
2019-01-17T10:50:17.928Z,10.47
2019-01-17T10:53:46.189Z,10.53
2019-01-17T10:57:33.183Z,10.58
2019-01-17T11:01:07.784Z,10.58
2019-01-17T11:04:31.010Z,10.50
2019-01-17T11:08:10.146Z,10.62
2019-01-17T11:11:32.088Z,10.63
2019-01-17T11:15:49.254Z,10.66
2019-01-17T11:19:29.604Z,10.62
2019-01-17T11:23:28.586Z,10.56
2019-01-17T11:26:55.480Z,10.51
2019-01-17T11:30:23.171Z,10.56
2019-01-17T11:34:16.785Z,10.56
2019-01-17T11:38:07.927Z,10.59
2019-01-17T11:41:42.122Z,10.64
2019-01-17T11:45:27.678Z,10.72
2019-01-17T11:49:25.834Z,10.76
2019-01-17T11:53:23.264Z,10.84
2019-01-17T11:57:16.111Z,10.89
2019-01-17T12:01:02.653Z,11.05
2019-01-17T12:04:31.864Z,11.21
2019-01-17T12:07:21.831Z,11.43
2019-01-17T12:10:11.838Z,11.58
2019-01-17T12:13:02.296Z,11.65
2019-01-17T12:15:51.978Z,11.62
2019-01-17T12:18:42.046Z,11.54
2019-01-17T12:21:33.068Z,11.54
2019-01-17T12:24:23.271Z,11.50
2019-01-17T12:27:12.726Z,11.46
2019-01-17T12:30:02.734Z,11.38
2019-01-17T12:32:52.731Z,11.42
2019-01-17T12:35:42.915Z,11.40
2019-01-17T12:38:32.738Z,11.37
2019-01-17T12:41:23.289Z,11.42
2019-01-17T12:44:13.738Z,11.44
2019-01-17T12:47:03.347Z,11.42
2019-01-17T12:49:53.348Z,11.48
2019-01-17T12:52:44.539Z,11.38
2019-01-17T12:55:34.758Z,11.38
2019-01-17T12:58:24.957Z,11.31
2019-01-17T13:01:16.077Z,11.23
2019-01-17T13:04:06.857Z,11.21
2019-01-17T13:06:56.780Z,11.16
2019-01-17T13:09:46.579Z,11.13
2019-01-17T13:12:37.217Z,11.23
2019-01-17T13:15:27.286Z,11.21
2019-01-17T13:18:17.361Z,11.28
2019-01-17T13:21:07.451Z,11.28
2019-01-17T13:23:57.586Z,11.32
2019-01-17T13:26:47.727Z,11.27
2019-01-17T13:29:37.953Z,11.19
2019-01-17T13:32:27.847Z,11.15
2019-01-17T13:35:18.137Z,11.16
2019-01-17T13:38:08.240Z,11.12
2019-01-17T13:40:57.962Z,11.11
2019-01-17T13:43:47.727Z,11.04
2019-01-17T13:46:37.769Z,11.06
2019-01-17T13:49:27.303Z,11.04
2019-01-17T13:52:17.488Z,10.96
2019-01-17T13:55:08.426Z,10.85
2019-01-17T13:57:58.117Z,10.83
2019-01-17T14:00:48.157Z,10.79
2019-01-17T14:03:38.391Z,10.76
2019-01-17T14:06:28.761Z,10.73
2019-01-17T14:09:18.264Z,10.75
2019-01-17T14:12:08.577Z,10.72
2019-01-17T14:14:58.318Z,10.69
2019-01-17T14:17:48.034Z,10.69
2019-01-17T14:20:38.342Z,10.71
2019-01-17T14:23:28.171Z,10.73
2019-01-17T14:26:18.187Z,10.72
2019-01-17T14:29:09.023Z,10.75
2019-01-17T14:31:58.884Z,10.74
2019-01-17T14:34:49.093Z,10.70
2019-01-17T14:37:39.058Z,10.67
2019-01-17T14:40:29.126Z,10.62
2019-01-17T14:43:19.050Z,10.61
2019-01-17T14:46:09.292Z,10.66
2019-01-17T14:49:00.953Z,10.64
2019-01-17T14:51:51.619Z,10.63
2019-01-17T14:54:43.381Z,10.55
2019-01-17T14:57:34.834Z,10.52
2019-01-17T15:00:28.530Z,10.56
2019-01-17T15:03:18.722Z,10.50
2019-01-17T15:06:09.921Z,10.48
2019-01-17T15:08:59.734Z,10.37
2019-01-17T15:11:49.490Z,10.28
2019-01-17T15:14:38.988Z,10.16
2019-01-17T15:17:28.778Z,10.12
2019-01-17T15:20:20.524Z,10.10
2019-01-17T15:23:12.339Z,10.11
2019-01-17T15:26:02.360Z,10.07
2019-01-17T15:28:52.601Z,10.08
2019-01-17T15:31:42.784Z,10.09
2019-01-17T15:34:32.473Z,10.04
2019-01-17T15:37:22.423Z,10.05
2019-01-17T15:40:19.821Z,9.99
2019-01-17T15:43:09.926Z,9.99
2019-01-17T15:45:59.751Z,9.94
2019-01-17T15:48:49.703Z,9.94
2019-01-17T15:51:39.068Z,9.97
2019-01-17T15:54:28.979Z,10.01
2019-01-17T15:57:18.665Z,9.97
2019-01-17T16:00:14.626Z,9.92
2019-01-17T16:03:04.442Z,9.91
2019-01-17T16:05:54.664Z,9.87
2019-01-17T16:08:44.582Z,9.92
2019-01-17T16:11:34.737Z,9.87
2019-01-17T16:14:24.505Z,9.84
2019-01-17T16:17:14.588Z,9.83
2019-01-17T16:20:05.164Z,9.83
2019-01-17T16:22:55.539Z,9.74
2019-01-17T16:25:45.427Z,9.63
2019-01-17T16:28:35.019Z,9.63
2019-01-17T16:31:25.231Z,9.51
2019-01-17T16:34:15.344Z,9.49
2019-01-17T16:37:05.522Z,9.41
2019-01-17T16:39:55.929Z,9.35
2019-01-17T16:42:46.266Z,9.29
2019-01-17T16:45:36.094Z,9.31
2019-01-17T16:48:26.070Z,9.29
2019-01-17T16:51:16.148Z,9.24
2019-01-17T16:54:06.585Z,9.18
2019-01-17T16:56:56.909Z,9.17
2019-01-17T16:59:47.001Z,9.13
2019-01-17T17:02:36.158Z,9.13
2019-01-17T17:05:26.221Z,9.19
2019-01-17T17:08:16.515Z,9.17
2019-01-17T17:11:06.777Z,9.16
2019-01-17T17:13:56.170Z,9.01
2019-01-17T17:16:45.759Z,9.02
2019-01-17T17:19:35.853Z,8.89
2019-01-17T17:22:25.748Z,8.62
2019-01-17T17:25:15.690Z,8.47
2019-01-17T17:28:06.126Z,8.27
2019-01-17T17:30:56.546Z,8.00
2019-01-17T17:33:46.162Z,7.84
2019-01-17T17:36:36.466Z,7.62
2019-01-17T17:39:26.058Z,7.55
2019-01-17T17:42:16.385Z,7.41
2019-01-17T17:45:07.891Z,7.32
2019-01-17T17:48:00.677Z,7.31
2019-01-17T17:50:50.308Z,7.26
2019-01-17T17:53:40.107Z,7.24
2019-01-17T17:56:31.197Z,7.13
2019-01-17T17:59:21.745Z,7.13
2019-01-17T18:02:19.616Z,7.11
2019-01-17T18:05:14.570Z,7.10
2019-01-17T18:08:04.896Z,7.12
2019-01-17T18:10:54.739Z,7.11
2019-01-17T18:13:45.130Z,7.15
2019-01-17T18:16:34.527Z,7.13
2019-01-17T18:19:24.666Z,7.11
2019-01-17T18:22:15.040Z,7.16
2019-01-17T18:25:05.505Z,7.18
2019-01-17T18:27:55.490Z,7.16
2019-01-17T18:30:45.412Z,7.10
2019-01-17T18:33:35.561Z,7.15
2019-01-17T18:36:25.519Z,7.08
2019-01-17T18:39:15.677Z,7.01
2019-01-17T18:42:06.006Z,6.84
2019-01-17T18:44:56.295Z,6.79
2019-01-17T18:47:47.377Z,6.76
2019-01-17T18:50:38.470Z,6.67
2019-01-17T18:53:28.868Z,6.60
2019-01-17T18:56:18.530Z,6.57
2019-01-17T18:59:08.068Z,6.46
2019-01-17T19:01:58.399Z,6.36
2019-01-17T19:04:48.991Z,6.39
2019-01-17T19:07:40.695Z,6.39
2019-01-17T19:10:30.436Z,6.37
2019-01-17T19:13:19.491Z,6.35
2019-01-17T19:16:09.581Z,6.36
2019-01-17T19:18:59.710Z,6.33
2019-01-17T19:21:48.835Z,6.29
2019-01-17T19:24:38.140Z,6.29
2019-01-17T19:27:28.187Z,6.26
2019-01-17T19:30:21.385Z,6.19
2019-01-17T19:33:10.639Z,6.27
2019-01-17T19:36:00.470Z,6.31
2019-01-17T19:38:50.742Z,6.28
2019-01-17T19:41:40.861Z,6.29
2019-01-17T19:44:40.165Z,6.28
2019-01-17T19:47:30.098Z,6.25
2019-01-17T19:50:29.913Z,6.20
2019-01-17T19:53:23.092Z,6.16
2019-01-17T19:56:13.232Z,6.11
2019-01-17T19:59:03.472Z,6.07
2019-01-17T20:01:53.472Z,6.05
2019-01-17T20:04:43.294Z,6.04
2019-01-17T20:07:33.336Z,6.07
2019-01-17T20:10:27.206Z,6.06
2019-01-17T20:13:16.845Z,6.08
2019-01-17T20:16:07.247Z,6.09
2019-01-17T20:18:57.480Z,6.06
2019-01-17T20:21:47.477Z,5.98
2019-01-17T20:24:37.509Z,5.93
2019-01-17T20:27:27.760Z,5.92
2019-01-17T20:30:20.813Z,5.89
2019-01-17T20:33:10.357Z,5.86
2019-01-17T20:36:00.013Z,5.82
2019-01-17T20:38:49.666Z,5.77
2019-01-17T20:41:39.677Z,5.73
2019-01-17T20:44:29.521Z,5.71
2019-01-17T20:47:19.768Z,5.73
2019-01-17T20:50:14.092Z,5.69
2019-01-17T20:53:03.742Z,5.66
2019-01-17T20:55:53.799Z,5.65
2019-01-17T20:58:43.963Z,5.61
2019-01-17T21:02:03.232Z,5.58
2019-01-17T21:04:54.294Z,5.61
2019-01-17T21:07:44.257Z,5.56
2019-01-17T21:10:34.170Z,5.57
2019-01-17T21:13:24.489Z,5.52
2019-01-17T21:16:14.375Z,5.52
2019-01-17T21:19:04.819Z,5.53
2019-01-17T21:21:55.311Z,5.47
2019-01-17T21:24:44.866Z,5.51
2019-01-17T21:27:34.419Z,5.53
2019-01-17T21:30:25.060Z,5.56
2019-01-17T21:33:14.884Z,5.61
2019-01-17T21:36:04.801Z,5.62
2019-01-17T21:38:54.638Z,5.59
2019-01-17T21:41:44.433Z,5.58
2019-01-17T21:44:35.120Z,5.56
2019-01-17T21:47:25.315Z,5.51
2019-01-17T21:50:40.001Z,5.51
2019-01-17T21:53:29.894Z,5.51
2019-01-17T21:56:19.788Z,5.47
2019-01-17T21:59:09.162Z,5.42
2019-01-17T22:01:59.023Z,5.46
2019-01-17T22:04:49.080Z,5.43
2019-01-17T22:07:39.065Z,5.40
2019-01-17T22:10:29.422Z,5.44
2019-01-17T22:13:19.610Z,5.44
2019-01-17T22:16:09.654Z,5.41
2019-01-17T22:18:59.587Z,5.46
2019-01-17T22:21:49.914Z,5.42
2019-01-17T22:24:40.195Z,5.42
2019-01-17T22:27:30.353Z,5.38
2019-01-17T22:30:26.147Z,5.38
2019-01-17T22:33:16.248Z,5.35
2019-01-17T22:36:06.599Z,5.32
2019-01-17T22:38:56.373Z,5.31
2019-01-17T22:41:46.175Z,5.23
2019-01-17T22:44:36.211Z,5.25
2019-01-17T22:47:26.202Z,5.18
2019-01-17T22:50:17.490Z,5.17
2019-01-17T22:53:07.480Z,5.13
2019-01-17T22:55:57.302Z,5.16
2019-01-17T22:58:47.270Z,5.14
2019-01-17T23:01:37.594Z,5.10
2019-01-17T23:04:27.146Z,5.11
2019-01-17T23:07:16.879Z,5.08
2019-01-17T23:10:07.585Z,5.07
2019-01-17T23:12:57.393Z,5.03
2019-01-17T23:15:47.112Z,5.07
2019-01-17T23:18:37.251Z,5.08
2019-01-17T23:21:27.461Z,5.16
2019-01-17T23:24:17.350Z,5.16
2019-01-17T23:27:06.994Z,5.15
2019-01-17T23:29:57.019Z,5.14
2019-01-17T23:32:47.200Z,5.13
2019-01-17T23:35:37.656Z,5.16
2019-01-17T23:38:27.371Z,5.19
2019-01-17T23:41:16.754Z,5.19
2019-01-17T23:44:07.124Z,5.20
2019-01-17T23:46:57.243Z,5.19
2019-01-17T23:49:47.197Z,5.24
2019-01-17T23:52:36.885Z,5.24
2019-01-17T23:55:26.667Z,5.22
2019-01-17T23:58:17.626Z,5.26
